createdAt,value
2023-05-06T00:01:20.903Z,7.33
2023-05-06T00:03:48.147Z,7.31
2023-05-06T00:06:15.247Z,7.29
2023-05-06T00:08:42.205Z,7.26
2023-05-06T00:11:09.170Z,7.23
2023-05-06T00:13:37.716Z,7.21
2023-05-06T00:16:04.954Z,7.17
2023-05-06T00:18:31.988Z,7.15
2023-05-06T00:20:58.887Z,7.16
2023-05-06T00:23:25.765Z,7.16
2023-05-06T00:25:54.417Z,7.16
2023-05-06T00:28:21.303Z,7.14
2023-05-06T00:30:48.146Z,7.09
2023-05-06T00:33:15.131Z,7.06
2023-05-06T00:35:42.206Z,7.03
2023-05-06T00:38:10.994Z,7.00
2023-05-06T00:40:37.921Z,6.98
2023-05-06T00:43:04.807Z,6.94
2023-05-06T00:45:31.873Z,6.88
2023-05-06T00:47:58.874Z,6.86
2023-05-06T00:50:26.104Z,6.82
2023-05-06T00:52:54.778Z,6.80
2023-05-06T00:55:22.186Z,6.78
2023-05-06T00:57:51.985Z,6.77
2023-05-06T01:00:19.735Z,6.74
2023-05-06T01:02:48.204Z,6.71
2023-05-06T01:05:16.939Z,6.70
2023-05-06T01:08:13.626Z,6.71
2023-05-06T01:10:52.729Z,6.71
2023-05-06T01:13:38.571Z,6.73
2023-05-06T01:16:05.948Z,6.75
2023-05-06T01:18:33.058Z,6.77
2023-05-06T01:21:00.133Z,6.80
2023-05-06T01:23:27.290Z,6.84
2023-05-06T01:25:54.176Z,6.87
2023-05-06T01:28:21.321Z,6.87
2023-05-06T01:31:05.783Z,6.88
2023-05-06T01:33:44.840Z,6.88
2023-05-06T01:36:36.722Z,6.85
2023-05-06T01:39:20.994Z,6.84
2023-05-06T01:41:48.800Z,6.85
2023-05-06T01:44:16.400Z,6.78
2023-05-06T01:46:44.474Z,6.69
2023-05-06T01:49:12.372Z,6.63
2023-05-06T01:51:39.244Z,6.60
2023-05-06T01:54:06.538Z,6.57
2023-05-06T01:56:33.399Z,6.54
2023-05-06T01:59:00.417Z,6.52
2023-05-06T02:01:27.419Z,6.44
2023-05-06T02:03:54.577Z,6.41
2023-05-06T02:06:21.728Z,6.39
2023-05-06T02:08:49.259Z,6.39
2023-05-06T02:11:19.618Z,6.35
2023-05-06T02:13:48.239Z,6.28
2023-05-06T02:16:15.086Z,6.22
2023-05-06T02:18:42.321Z,6.19
2023-05-06T02:21:10.164Z,6.16
2023-05-06T02:23:37.482Z,6.12
2023-05-06T02:26:04.577Z,6.08
2023-05-06T02:28:33.230Z,6.06
2023-05-06T02:31:00.165Z,6.03
2023-05-06T02:33:27.123Z,6.01
2023-05-06T02:35:53.982Z,6.00
2023-05-06T02:38:21.310Z,6.00
2023-05-06T02:40:48.203Z,6.01
2023-05-06T02:43:15.168Z,6.02
2023-05-06T02:45:42.168Z,6.03
2023-05-06T02:48:09.029Z,6.07
2023-05-06T02:50:36.899Z,6.10
2023-05-06T02:53:03.957Z,6.12
2023-05-06T02:55:30.861Z,6.14
2023-05-06T02:57:57.850Z,6.16
2023-05-06T03:00:24.838Z,6.15
2023-05-06T03:02:51.807Z,6.16
2023-05-06T03:05:18.999Z,6.13
2023-05-06T03:07:45.932Z,6.12
2023-05-06T03:10:13.456Z,6.14
2023-05-06T03:12:40.742Z,6.16
2023-05-06T03:15:08.772Z,6.17
2023-05-06T03:17:37.871Z,6.16
2023-05-06T03:20:08.390Z,6.17
2023-05-06T03:22:35.967Z,6.16
2023-05-06T03:25:03.376Z,6.14
2023-05-06T03:27:31.074Z,6.13
2023-05-06T03:30:02.110Z,6.11
2023-05-06T03:32:29.520Z,6.12
2023-05-06T03:34:57.763Z,6.14
2023-05-06T03:37:24.722Z,6.16
2023-05-06T03:39:54.280Z,6.15
2023-05-06T03:42:23.048Z,6.16
2023-05-06T03:44:50.195Z,6.18
2023-05-06T03:47:17.756Z,6.22
2023-05-06T03:49:45.183Z,6.28
2023-05-06T03:52:12.823Z,6.35
2023-05-06T03:54:39.694Z,6.39
2023-05-06T03:57:07.519Z,6.42
2023-05-06T03:59:34.598Z,6.42
2023-05-06T04:02:02.377Z,6.43
2023-05-06T04:04:32.244Z,6.44
2023-05-06T04:06:59.265Z,6.46
2023-05-06T04:09:26.209Z,6.50
2023-05-06T04:11:54.522Z,6.54
2023-05-06T04:14:44.153Z,6.57
2023-05-06T04:17:11.097Z,6.60
2023-05-06T04:19:38.285Z,6.62
2023-05-06T04:22:05.203Z,6.66
2023-05-06T04:24:32.235Z,6.65
2023-05-06T04:26:59.669Z,6.65
2023-05-06T04:29:27.724Z,6.68
2023-05-06T04:31:58.492Z,6.74
2023-05-06T04:34:27.936Z,6.78
2023-05-06T04:36:56.641Z,6.80
2023-05-06T04:39:42.749Z,6.81
2023-05-06T04:42:09.692Z,6.84
2023-05-06T04:44:42.975Z,6.90
2023-05-06T04:47:10.086Z,6.96
2023-05-06T04:49:37.293Z,7.00
2023-05-06T04:52:04.590Z,7.07
2023-05-06T04:54:31.511Z,7.15
2023-05-06T04:56:58.516Z,7.19
2023-05-06T04:59:26.348Z,7.19
2023-05-06T05:01:54.036Z,7.19
2023-05-06T05:04:20.941Z,7.21
2023-05-06T05:06:47.834Z,7.22
2023-05-06T05:09:15.429Z,7.22
2023-05-06T05:11:43.684Z,7.22
2023-05-06T05:14:10.579Z,7.24
2023-05-06T05:16:37.726Z,7.29
2023-05-06T05:19:08.910Z,7.35
2023-05-06T05:21:37.160Z,7.40
2023-05-06T05:24:04.828Z,7.45
2023-05-06T05:26:34.019Z,7.51
2023-05-06T05:29:00.925Z,7.56
2023-05-06T05:31:28.084Z,7.57
2023-05-06T05:33:55.514Z,7.57
2023-05-06T05:36:23.541Z,7.60
2023-05-06T05:38:52.745Z,7.63
2023-05-06T05:41:19.792Z,7.66
2023-05-06T05:43:47.109Z,7.74
2023-05-06T05:46:14.630Z,7.80
2023-05-06T05:48:42.194Z,7.88
2023-05-06T05:51:10.859Z,7.97
2023-05-06T05:53:37.986Z,8.09
2023-05-06T05:56:05.641Z,8.21
2023-05-06T05:58:32.531Z,8.33
2023-05-06T06:00:59.630Z,8.41
2023-05-06T06:03:52.022Z,8.49
2023-05-06T06:06:19.280Z,8.55
2023-05-06T06:08:46.614Z,8.61
2023-05-06T06:11:13.920Z,8.66
2023-05-06T06:13:41.255Z,8.70
2023-05-06T06:16:08.371Z,8.76
2023-05-06T06:18:35.657Z,8.80
2023-05-06T06:21:05.778Z,8.87
2023-05-06T06:23:32.674Z,9.00
2023-05-06T06:25:59.769Z,9.12
2023-05-06T06:28:26.942Z,9.18
2023-05-06T06:30:54.104Z,9.18
2023-05-06T06:33:21.072Z,9.14
2023-05-06T06:35:47.940Z,9.14
2023-05-06T06:38:14.807Z,9.19
2023-05-06T06:40:41.797Z,9.24
2023-05-06T06:43:08.667Z,9.27
2023-05-06T06:45:54.416Z,9.25
2023-05-06T06:48:21.619Z,9.27
2023-05-06T06:50:48.482Z,9.32
2023-05-06T06:53:15.506Z,9.38
2023-05-06T06:55:45.707Z,9.46
2023-05-06T06:58:12.600Z,9.61
2023-05-06T07:00:39.708Z,9.69
2023-05-06T07:03:06.887Z,9.69
2023-05-06T07:05:33.970Z,9.68
2023-05-06T07:08:00.921Z,9.69
2023-05-06T07:10:27.849Z,9.68
2023-05-06T07:12:54.777Z,9.77
2023-05-06T07:15:46.934Z,9.91
2023-05-06T07:18:13.999Z,10.03
2023-05-06T07:20:41.084Z,10.09
2023-05-06T07:23:10.092Z,10.08
2023-05-06T07:25:43.293Z,10.01
2023-05-06T07:28:11.387Z,10.04
2023-05-06T07:30:39.093Z,10.15
2023-05-06T07:33:06.134Z,10.28
2023-05-06T07:35:36.933Z,10.38
2023-05-06T07:38:03.800Z,10.47
2023-05-06T07:40:30.805Z,10.55
2023-05-06T07:42:57.735Z,10.61
2023-05-06T07:45:27.749Z,10.58
2023-05-06T07:47:54.737Z,10.57
2023-05-06T07:50:21.751Z,10.58
2023-05-06T07:52:48.642Z,10.63
2023-05-06T07:55:15.600Z,10.68
2023-05-06T07:57:42.510Z,10.70
2023-05-06T08:00:10.294Z,10.72
2023-05-06T08:02:46.957Z,10.84
2023-05-06T08:05:14.734Z,10.91
2023-05-06T08:07:42.425Z,10.91
2023-05-06T08:10:12.511Z,10.93
2023-05-06T08:12:39.828Z,11.02
2023-05-06T08:15:08.047Z,11.16
2023-05-06T08:17:35.258Z,11.24
2023-05-06T08:20:02.167Z,11.18
2023-05-06T08:22:29.032Z,11.14
2023-05-06T08:24:56.409Z,11.16
2023-05-06T08:27:23.289Z,11.22
2023-05-06T08:29:50.178Z,11.31
2023-05-06T08:32:17.129Z,11.40
2023-05-06T08:34:44.142Z,11.47
2023-05-06T08:37:11.213Z,11.50
2023-05-06T08:39:38.466Z,11.61
2023-05-06T08:42:05.611Z,11.70
2023-05-06T08:44:33.735Z,11.77
2023-05-06T08:47:00.757Z,11.87
2023-05-06T08:49:27.928Z,12.00
2023-05-06T08:51:54.841Z,12.04
2023-05-06T08:54:21.713Z,12.08
2023-05-06T08:56:55.450Z,12.16
2023-05-06T08:59:25.933Z,12.20
2023-05-06T09:01:53.634Z,12.30
2023-05-06T09:04:20.505Z,12.48
2023-05-06T09:06:47.393Z,12.60
2023-05-06T09:09:15.075Z,12.63
2023-05-06T09:11:41.978Z,12.71
2023-05-06T09:14:11.209Z,12.85
2023-05-06T09:16:38.487Z,13.07
2023-05-06T09:19:05.927Z,13.19
2023-05-06T09:21:37.080Z,13.22
2023-05-06T09:24:05.404Z,13.29
2023-05-06T09:26:33.316Z,13.43
2023-05-06T09:29:00.439Z,13.53
2023-05-06T09:31:27.670Z,13.60
2023-05-06T09:39:15.096Z,13.97
2023-05-06T09:41:42.076Z,14.30
2023-05-06T09:44:09.041Z,14.53
2023-05-06T09:46:35.875Z,14.61
2023-05-06T09:49:02.798Z,14.59
2023-05-06T09:51:29.720Z,14.67
2023-05-06T09:54:01.085Z,14.83
2023-05-06T09:56:27.924Z,15.07
2023-05-06T09:58:55.478Z,15.30
2023-05-06T10:01:35.500Z,15.39
2023-05-06T10:04:05.199Z,15.52
2023-05-06T10:06:32.882Z,15.75
2023-05-06T10:08:59.724Z,15.98
2023-05-06T10:11:26.571Z,16.01
2023-05-06T10:13:53.389Z,16.17
2023-05-06T10:16:20.236Z,16.59
2023-05-06T10:18:47.201Z,16.95
2023-05-06T10:21:17.438Z,17.12
2023-05-06T10:23:45.024Z,17.27
2023-05-06T10:26:12.210Z,17.28
2023-05-06T10:28:41.151Z,17.32
2023-05-06T10:31:13.081Z,17.50
2023-05-06T10:33:42.419Z,17.69
2023-05-06T10:36:26.054Z,18.28
2023-05-06T10:38:55.058Z,18.91
2023-05-06T10:41:22.459Z,18.88
2023-05-06T10:43:55.941Z,18.87
2023-05-06T10:46:24.063Z,18.94
2023-05-06T10:49:06.534Z,18.90
2023-05-06T10:51:40.647Z,19.13
2023-05-06T10:54:19.897Z,19.54
2023-05-06T10:56:49.946Z,19.96
2023-05-06T10:59:26.788Z,19.94
2023-05-06T11:02:08.073Z,19.74
2023-05-06T11:04:35.070Z,19.68
2023-05-06T11:07:12.888Z,19.88
2023-05-06T11:09:58.424Z,19.85
2023-05-06T11:12:45.054Z,19.84
2023-05-06T11:15:37.849Z,19.98
2023-05-06T11:18:40.853Z,20.10
2023-05-06T11:21:07.893Z,20.05
2023-05-06T11:23:47.147Z,20.16
2023-05-06T11:26:14.170Z,20.30
2023-05-06T11:28:43.680Z,20.16
2023-05-06T11:31:12.531Z,20.14
2023-05-06T11:33:46.507Z,20.14
2023-05-06T11:36:17.879Z,20.22
2023-05-06T11:38:49.763Z,20.10
2023-05-06T11:41:16.900Z,19.98
2023-05-06T11:43:47.685Z,19.84
2023-05-06T11:46:14.628Z,19.69
2023-05-06T11:48:43.505Z,19.48
2023-05-06T11:51:10.360Z,19.35
2023-05-06T11:53:37.242Z,19.67
2023-05-06T11:56:06.247Z,19.64
2023-05-06T11:58:33.267Z,19.40
2023-05-06T12:01:01.241Z,19.29
2023-05-06T12:03:29.526Z,19.48
2023-05-06T12:05:56.768Z,19.79
2023-05-06T12:08:36.605Z,19.98
2023-05-06T12:11:05.206Z,19.93
2023-05-06T12:13:32.102Z,19.54
2023-05-06T12:15:59.809Z,19.56
2023-05-06T12:18:26.855Z,19.75
2023-05-06T12:20:54.770Z,19.91
2023-05-06T12:23:24.890Z,19.97
2023-05-06T12:26:04.951Z,19.90
2023-05-06T12:28:32.722Z,20.11
2023-05-06T12:31:00.829Z,20.49
2023-05-06T12:33:27.850Z,20.60
2023-05-06T12:35:58.439Z,20.67
2023-05-06T12:38:25.320Z,20.73
2023-05-06T12:40:55.476Z,20.59
2023-05-06T12:43:31.568Z,20.53
2023-05-06T12:46:06.020Z,20.56
2023-05-06T12:48:33.022Z,20.68
2023-05-06T12:50:59.950Z,20.67
2023-05-06T12:53:34.306Z,20.90
2023-05-06T12:56:01.155Z,21.05
2023-05-06T12:58:28.021Z,21.04
2023-05-06T13:00:54.856Z,20.97
2023-05-06T13:03:22.048Z,20.94
2023-05-06T13:05:50.554Z,21.06
2023-05-06T13:08:17.442Z,21.20
2023-05-06T13:10:44.314Z,21.42
2023-05-06T13:13:11.406Z,21.29
2023-05-06T13:15:39.123Z,20.87
2023-05-06T13:18:06.096Z,20.71
2023-05-06T13:20:33.036Z,20.47
2023-05-06T13:22:59.951Z,20.52
2023-05-06T13:25:26.878Z,20.80
2023-05-06T13:27:53.778Z,21.07
2023-05-06T13:30:20.692Z,21.22
2023-05-06T13:32:50.745Z,21.30
2023-05-06T13:35:17.504Z,21.24
2023-05-06T13:37:44.405Z,21.07
2023-05-06T13:40:12.328Z,21.12
2023-05-06T13:42:39.758Z,21.41
2023-05-06T13:45:08.486Z,21.86
2023-05-06T13:47:35.386Z,22.34
2023-05-06T13:50:03.925Z,22.41
2023-05-06T13:52:30.774Z,22.18
2023-05-06T13:55:01.054Z,22.19
2023-05-06T13:57:28.228Z,22.04
2023-05-06T13:59:55.126Z,21.50
2023-05-06T14:02:22.044Z,21.03
2023-05-06T14:04:48.876Z,21.24
2023-05-06T14:07:15.758Z,21.61
2023-05-06T14:09:42.584Z,21.78
2023-05-06T14:12:09.571Z,21.94
2023-05-06T14:14:36.570Z,22.07
2023-05-06T14:17:03.435Z,22.15
2023-05-06T14:19:30.358Z,22.20
2023-05-06T14:21:57.311Z,22.25
2023-05-06T14:24:24.202Z,22.29
2023-05-06T14:26:51.257Z,21.94
2023-05-06T14:29:18.485Z,21.92
2023-05-06T14:31:45.364Z,22.17
2023-05-06T14:34:12.291Z,22.49
2023-05-06T14:36:39.329Z,22.60
2023-05-06T14:39:06.222Z,22.53
2023-05-06T14:41:33.139Z,22.49
2023-05-06T14:44:00.037Z,22.51
2023-05-06T14:46:29.425Z,22.72
2023-05-06T14:48:59.821Z,23.06
2023-05-06T14:51:26.629Z,23.35
2023-05-06T14:53:53.461Z,23.21
2023-05-06T14:56:21.258Z,22.66
2023-05-06T14:58:48.422Z,22.51
2023-05-06T15:01:15.366Z,22.69
2023-05-06T15:03:42.396Z,22.93
2023-05-06T15:06:09.365Z,23.02
2023-05-06T15:08:36.393Z,22.91
2023-05-06T15:11:04.458Z,22.66
2023-05-06T15:13:31.418Z,22.58
2023-05-06T15:15:58.223Z,22.65
2023-05-06T15:18:25.155Z,22.67
2023-05-06T15:20:55.305Z,22.76
2023-05-06T15:23:22.513Z,22.79
2023-05-06T15:25:49.314Z,22.81
2023-05-06T15:28:16.172Z,22.92
2023-05-06T15:30:43.116Z,22.99
2023-05-06T15:33:10.222Z,22.93
2023-05-06T15:35:37.104Z,22.72
2023-05-06T15:38:04.098Z,22.62
2023-05-06T15:40:31.369Z,22.67
2023-05-06T15:42:58.746Z,22.71
2023-05-06T15:45:26.172Z,22.64
2023-05-06T15:47:54.482Z,22.69
2023-05-06T15:50:32.521Z,22.73
2023-05-06T15:53:00.209Z,22.56
2023-05-06T15:55:28.141Z,22.44
2023-05-06T15:57:55.190Z,22.24
2023-05-06T16:00:22.505Z,21.55
2023-05-06T16:02:49.648Z,20.83
2023-05-06T16:05:16.886Z,20.69
2023-05-06T16:07:43.961Z,20.68
2023-05-06T16:10:14.499Z,20.67
2023-05-06T16:12:41.689Z,20.66
2023-05-06T16:15:09.138Z,20.58
2023-05-06T16:17:38.159Z,20.46
2023-05-06T16:20:06.765Z,20.22
2023-05-06T16:22:33.788Z,19.97
2023-05-06T16:25:00.811Z,19.74
2023-05-06T16:27:28.994Z,19.35
2023-05-06T16:29:55.892Z,19.03
2023-05-06T16:32:23.556Z,18.89
2023-05-06T16:34:50.911Z,18.54
2023-05-06T16:37:18.525Z,18.38
2023-05-06T16:39:45.515Z,18.38
2023-05-06T16:42:12.477Z,18.22
2023-05-06T16:44:39.394Z,17.94
2023-05-06T16:47:06.377Z,17.60
2023-05-06T16:49:34.016Z,17.34
2023-05-06T16:52:00.948Z,16.98
2023-05-06T16:54:27.970Z,16.52
2023-05-06T16:56:55.151Z,15.99
2023-05-06T16:59:22.688Z,15.51
2023-05-06T17:02:18.298Z,14.99
2023-05-06T17:04:45.243Z,14.42
2023-05-06T17:07:12.338Z,14.11
2023-05-06T17:09:39.353Z,13.80
2023-05-06T17:12:07.611Z,13.47
2023-05-06T17:14:35.795Z,13.16
2023-05-06T17:17:05.389Z,12.91
2023-05-06T17:19:33.682Z,12.65
2023-05-06T17:22:00.830Z,12.40
2023-05-06T17:24:27.940Z,12.16
2023-05-06T17:26:54.925Z,12.00
2023-05-06T17:29:22.491Z,11.86
2023-05-06T17:31:52.687Z,11.69
2023-05-06T17:36:51.619Z,11.38
2023-05-06T17:39:18.673Z,11.27
2023-05-06T17:41:45.769Z,11.15
2023-05-06T17:44:12.836Z,11.05
2023-05-06T17:46:39.999Z,10.93
2023-05-06T17:49:07.028Z,10.80
2023-05-06T17:51:33.950Z,10.72
2023-05-06T17:54:00.878Z,10.66
2023-05-06T17:56:27.910Z,10.62
2023-05-06T17:58:56.603Z,10.56
2023-05-06T18:01:24.155Z,10.52
2023-05-06T18:03:51.218Z,10.47
2023-05-06T18:06:18.782Z,10.40
2023-05-06T18:08:45.978Z,10.33
2023-05-06T18:11:13.034Z,10.27
2023-05-06T18:13:40.025Z,10.20
2023-05-06T18:16:07.248Z,10.13
2023-05-06T18:18:34.424Z,10.09
2023-05-06T18:21:01.736Z,10.06
2023-05-06T18:23:30.136Z,10.04
2023-05-06T18:25:57.268Z,10.00
2023-05-06T18:28:24.398Z,9.95
2023-05-06T18:30:51.414Z,9.90
2023-05-06T18:33:20.416Z,9.85
2023-05-06T18:35:47.447Z,9.79
2023-05-06T18:38:15.421Z,9.74
2023-05-06T18:40:43.932Z,9.68
2023-05-06T18:43:10.989Z,9.63
2023-05-06T18:45:38.025Z,9.57
2023-05-06T18:48:05.584Z,9.53
2023-05-06T18:50:32.773Z,9.50
2023-05-06T18:52:59.697Z,9.49
2023-05-06T18:55:26.818Z,9.47
2023-05-06T18:57:53.929Z,9.47
2023-05-06T19:00:22.591Z,9.47
2023-05-06T19:02:49.628Z,9.48
2023-05-06T19:05:20.814Z,9.48
2023-05-06T19:07:47.796Z,9.51
2023-05-06T19:10:14.909Z,9.54
2023-05-06T19:12:41.939Z,9.56
2023-05-06T19:15:12.339Z,9.58
2023-05-06T19:17:39.639Z,9.60
2023-05-06T19:20:08.258Z,9.62
2023-05-06T19:22:35.206Z,9.62
2023-05-06T19:25:02.194Z,9.64
2023-05-06T19:27:29.101Z,9.65
2023-05-06T19:29:56.657Z,9.65
2023-05-06T19:32:23.772Z,9.65
2023-05-06T19:34:50.820Z,9.64
2023-05-06T19:37:17.809Z,9.63
2023-05-06T19:39:46.498Z,9.62
2023-05-06T19:42:13.404Z,9.61
2023-05-06T19:44:40.487Z,9.60
2023-05-06T19:47:09.392Z,9.59
2023-05-06T19:49:36.364Z,9.57
2023-05-06T19:52:03.321Z,9.55
2023-05-06T19:54:30.492Z,9.55
2023-05-06T19:56:57.537Z,9.53
2023-05-06T19:59:24.479Z,9.51
2023-05-06T20:01:53.419Z,9.48
2023-05-06T20:04:20.621Z,9.47
2023-05-06T20:06:50.525Z,9.46
2023-05-06T20:09:17.607Z,9.45
2023-05-06T20:11:44.601Z,9.42
2023-05-06T20:14:11.488Z,9.39
2023-05-06T20:16:39.074Z,9.36
2023-05-06T20:19:07.916Z,9.31
2023-05-06T20:21:34.943Z,9.25
2023-05-06T20:24:01.849Z,9.20
2023-05-06T20:26:28.778Z,9.15
2023-05-06T20:28:55.840Z,9.09
2023-05-06T20:31:22.844Z,9.06
2023-05-06T20:33:49.926Z,9.03
2023-05-06T20:36:17.273Z,8.98
2023-05-06T20:38:44.238Z,8.95
2023-05-06T20:41:11.281Z,8.92
2023-05-06T20:43:38.324Z,8.90
2023-05-06T20:46:05.890Z,8.86
2023-05-06T20:48:32.987Z,8.82
2023-05-06T20:51:04.379Z,8.78
2023-05-06T20:53:35.808Z,8.76
2023-05-06T20:56:02.786Z,8.72
2023-05-06T20:58:33.255Z,8.70
2023-05-06T21:01:00.175Z,8.65
2023-05-06T21:03:27.333Z,8.60
2023-05-06T21:05:54.512Z,8.55
2023-05-06T21:08:21.452Z,8.52
2023-05-06T21:10:48.406Z,8.49
2023-05-06T21:13:16.009Z,8.46
2023-05-06T21:15:43.161Z,8.43
2023-05-06T21:18:10.322Z,8.40
2023-05-06T21:20:37.386Z,8.38
2023-05-06T21:23:04.576Z,8.36
2023-05-06T21:25:31.466Z,8.34
2023-05-06T21:27:58.443Z,8.32
2023-05-06T21:30:26.003Z,8.31
2023-05-06T21:32:53.153Z,8.29
2023-05-06T21:35:20.351Z,8.28
2023-05-06T21:37:47.190Z,8.25
2023-05-06T21:40:14.073Z,8.23
2023-05-06T21:42:41.065Z,8.22
2023-05-06T21:45:08.533Z,8.21
2023-05-06T21:47:35.864Z,8.22
2023-05-06T21:50:03.493Z,8.23
2023-05-06T21:52:31.075Z,8.24
2023-05-06T21:54:57.920Z,8.27
2023-05-06T21:57:25.310Z,8.30
2023-05-06T21:59:52.540Z,8.31
2023-05-06T22:02:19.523Z,8.31
2023-05-06T22:04:46.635Z,8.33
2023-05-06T22:07:13.501Z,8.34
2023-05-06T22:09:40.450Z,8.33
2023-05-06T22:12:08.779Z,8.33
2023-05-06T22:14:41.092Z,8.32
2023-05-06T22:17:10.750Z,8.31
2023-05-06T22:19:38.605Z,8.29
2023-05-06T22:22:06.043Z,8.29
2023-05-06T22:24:32.925Z,8.30
2023-05-06T22:26:59.780Z,8.30
2023-05-06T22:29:26.815Z,8.28
2023-05-06T22:31:53.759Z,8.27
2023-05-06T22:34:20.882Z,8.26
2023-05-06T22:36:47.934Z,8.24
2023-05-06T22:39:14.850Z,8.23
2023-05-06T22:41:41.682Z,8.24
2023-05-06T22:44:08.570Z,8.23
2023-05-06T22:46:35.481Z,8.25
2023-05-06T22:49:04.716Z,8.26
2023-05-06T22:51:33.333Z,8.25
2023-05-06T22:54:00.628Z,8.24
2023-05-06T22:56:27.579Z,8.22
2023-05-06T22:58:54.597Z,8.22
2023-05-06T23:01:21.603Z,8.25
2023-05-06T23:03:48.760Z,8.27
2023-05-06T23:06:15.646Z,8.27
2023-05-06T23:08:42.663Z,8.24
2023-05-06T23:11:09.542Z,8.21
2023-05-06T23:13:36.583Z,8.20
2023-05-06T23:16:03.975Z,8.19
2023-05-06T23:18:31.027Z,8.19
2023-05-06T23:20:57.921Z,8.18
2023-05-06T23:23:24.898Z,8.17
2023-05-06T23:25:53.414Z,8.16
2023-05-06T23:28:21.048Z,8.14
2023-05-06T23:30:48.066Z,8.14
2023-05-06T23:33:15.104Z,8.14
2023-05-06T23:35:42.026Z,8.14
2023-05-06T23:38:08.912Z,8.14
2023-05-06T23:40:35.892Z,8.15
2023-05-06T23:43:02.841Z,8.14
2023-05-06T23:45:29.775Z,8.12
2023-05-06T23:47:58.908Z,8.11
2023-05-06T23:50:25.798Z,8.10
2023-05-06T23:52:52.669Z,8.09
2023-05-06T23:55:19.706Z,8.08
2023-05-06T23:57:46.532Z,8.06
